createdAt,value
2022-08-05T00:00:18.491Z,27.20
2022-08-05T00:02:51.512Z,26.64
2022-08-05T00:05:27.484Z,26.81
2022-08-05T00:08:32.603Z,26.47
2022-08-05T00:11:00.881Z,25.86
2022-08-05T00:13:39.608Z,25.90
2022-08-05T00:16:12.661Z,26.61
2022-08-05T00:18:42.326Z,27.75
2022-08-05T00:21:10.935Z,27.25
2022-08-05T00:23:46.251Z,25.45
2022-08-05T00:26:22.043Z,25.30
2022-08-05T00:28:51.841Z,25.39
2022-08-05T00:31:54.085Z,25.27
2022-08-05T00:34:53.951Z,25.30
2022-08-05T00:37:12.782Z,25.30
2022-08-05T00:39:44.187Z,25.19
2022-08-05T00:42:32.913Z,25.18
2022-08-05T00:45:02.697Z,25.15
2022-08-05T00:47:30.492Z,24.85
2022-08-05T00:50:18.599Z,25.43
2022-08-05T00:52:48.843Z,25.97
2022-08-05T00:55:16.591Z,26.61
2022-08-05T00:57:58.488Z,26.56
2022-08-05T01:00:28.971Z,25.91
2022-08-05T01:02:59.757Z,26.39
2022-08-05T01:05:28.191Z,26.52
2022-08-05T01:08:41.930Z,27.17
2022-08-05T01:10:51.645Z,27.34
2022-08-05T01:13:27.394Z,27.19
2022-08-05T01:16:26.529Z,27.32
2022-08-05T01:19:00.878Z,28.02
2022-08-05T01:22:18.695Z,28.38
2022-08-05T01:25:04.631Z,28.16
2022-08-05T01:28:03.782Z,28.15
2022-08-05T01:30:37.526Z,27.76
2022-08-05T01:33:08.385Z,28.08
2022-08-05T01:35:52.147Z,28.42
2022-08-05T01:38:27.229Z,27.97
2022-08-05T01:40:59.710Z,28.14
2022-08-05T01:43:29.635Z,28.07
2022-08-05T01:46:07.493Z,28.48
2022-08-05T01:48:49.548Z,28.32
2022-08-05T01:51:19.904Z,28.56
2022-08-05T01:53:57.361Z,27.35
2022-08-05T01:58:13.576Z,28.26
2022-08-05T01:59:24.082Z,28.66
2022-08-05T02:01:57.724Z,29.08
2022-08-05T02:04:29.936Z,28.47
2022-08-05T02:06:59.808Z,28.48
2022-08-05T02:09:31.633Z,28.40
2022-08-05T02:12:06.722Z,28.82
2022-08-05T02:14:47.092Z,27.72
2022-08-05T02:18:28.423Z,28.55
2022-08-05T02:20:21.241Z,28.70
2022-08-05T02:22:57.959Z,29.18
2022-08-05T02:25:33.049Z,29.52
2022-08-05T02:28:04.310Z,29.98
2022-08-05T02:30:42.676Z,29.04
2022-08-05T02:33:24.629Z,29.43
2022-08-05T02:36:04.575Z,28.74
2022-08-05T02:38:35.192Z,29.04
2022-08-05T02:41:14.732Z,29.43
2022-08-05T02:44:02.774Z,28.80
2022-08-05T02:46:53.198Z,28.64
2022-08-05T02:49:26.722Z,28.50
2022-08-05T02:52:02.840Z,28.62
2022-08-05T02:54:36.483Z,27.22
2022-08-05T02:57:10.365Z,26.32
2022-08-05T02:59:56.143Z,26.46
2022-08-05T03:02:32.727Z,26.31
2022-08-05T03:05:02.148Z,26.45
2022-08-05T03:08:00.157Z,26.34
2022-08-05T03:10:24.571Z,26.24
2022-08-05T03:12:54.010Z,26.20
2022-08-05T03:15:23.722Z,26.67
2022-08-05T03:17:55.962Z,26.66
2022-08-05T03:20:25.622Z,26.99
2022-08-05T03:22:57.102Z,27.26
2022-08-05T03:25:32.711Z,26.55
2022-08-05T03:28:13.979Z,26.28
2022-08-05T03:30:42.523Z,26.09
2022-08-05T03:33:12.123Z,26.28
2022-08-05T03:35:41.829Z,26.22
2022-08-05T03:38:12.162Z,26.05
2022-08-05T03:40:41.733Z,26.16
2022-08-05T03:43:58.307Z,27.24
2022-08-05T03:46:01.705Z,28.16
2022-08-05T03:48:35.130Z,27.19
2022-08-05T03:52:49.112Z,26.86
2022-08-05T03:55:52.077Z,27.32
2022-08-05T03:56:58.844Z,26.91
2022-08-05T03:59:46.753Z,27.48
2022-08-05T04:02:38.744Z,27.88
2022-08-05T04:05:10.341Z,28.53
2022-08-05T04:07:57.287Z,27.95
2022-08-05T04:10:37.629Z,27.02
2022-08-05T04:13:07.448Z,26.51
2022-08-05T04:15:36.555Z,26.09
2022-08-05T04:18:07.042Z,26.01
2022-08-05T04:20:37.221Z,25.79
2022-08-05T04:23:05.324Z,25.93
2022-08-05T04:25:56.789Z,26.33
2022-08-05T04:28:30.610Z,25.78
2022-08-05T04:31:00.821Z,26.09
2022-08-05T04:33:54.676Z,26.71
2022-08-05T04:36:45.319Z,26.09
2022-08-05T04:39:07.812Z,25.98
2022-08-05T04:41:37.262Z,25.57
2022-08-05T04:44:09.559Z,25.65
2022-08-05T04:46:38.572Z,25.78
2022-08-05T04:49:14.852Z,25.56
2022-08-05T04:51:45.042Z,25.28
2022-08-05T04:54:14.631Z,24.69
2022-08-05T04:56:43.604Z,24.77
2022-08-05T04:59:22.315Z,25.08
2022-08-05T05:02:08.197Z,24.39
2022-08-05T05:04:43.906Z,24.59
2022-08-05T05:07:17.312Z,24.70
2022-08-05T05:09:45.214Z,25.27
2022-08-05T05:12:13.006Z,25.29
2022-08-05T05:14:50.662Z,24.90
2022-08-05T05:17:23.953Z,25.81
2022-08-05T05:19:56.646Z,26.20
2022-08-05T05:22:26.894Z,26.49
2022-08-05T05:25:00.311Z,26.41
2022-08-05T05:27:44.434Z,26.51
2022-08-05T05:30:31.542Z,26.85
2022-08-05T05:33:03.802Z,27.69
2022-08-05T05:35:45.245Z,27.21
2022-08-05T05:38:15.038Z,27.43
2022-08-05T05:40:51.843Z,27.75
2022-08-05T05:43:21.790Z,27.67
2022-08-05T05:45:56.033Z,27.35
2022-08-05T05:48:27.483Z,27.80
2022-08-05T05:50:55.513Z,27.92
2022-08-05T05:53:24.792Z,27.94
2022-08-05T05:56:01.217Z,27.91
2022-08-05T05:58:32.289Z,27.87
2022-08-05T06:01:02.405Z,27.39
2022-08-05T06:04:01.894Z,27.59
2022-08-05T06:06:33.009Z,28.19
2022-08-05T06:09:04.826Z,28.15
2022-08-05T06:11:32.781Z,28.28
2022-08-05T06:14:00.981Z,28.18
2022-08-05T06:16:32.744Z,28.74
2022-08-05T06:19:07.442Z,28.49
2022-08-05T06:21:38.794Z,28.87
2022-08-05T06:24:12.847Z,28.71
2022-08-05T06:26:51.127Z,28.32
2022-08-05T06:29:42.878Z,28.87
2022-08-05T06:32:20.886Z,29.15
2022-08-05T06:34:56.107Z,29.76
2022-08-05T06:37:56.137Z,28.70
2022-08-05T06:40:20.901Z,29.30
2022-08-05T06:42:52.139Z,29.18
2022-08-05T06:45:44.981Z,29.64
2022-08-05T06:48:36.384Z,29.12
2022-08-05T06:50:58.001Z,28.74
2022-08-05T06:53:28.212Z,29.26
2022-08-05T06:55:59.221Z,30.07
2022-08-05T06:58:29.645Z,30.08
2022-08-05T07:01:03.504Z,29.89
2022-08-05T07:03:33.211Z,28.94
2022-08-05T07:06:05.457Z,28.90
2022-08-05T07:08:34.194Z,30.47
2022-08-05T07:11:04.840Z,29.79
2022-08-05T07:13:59.344Z,30.21
2022-08-05T07:18:08.486Z,30.18
2022-08-05T07:22:27.901Z,30.74
2022-08-05T07:24:58.651Z,30.75
2022-08-05T07:27:58.693Z,30.12
2022-08-05T07:30:25.483Z,31.05
2022-08-05T07:32:56.201Z,31.36
2022-08-05T07:35:56.037Z,30.98
2022-08-05T07:38:32.850Z,29.87
2022-08-05T07:41:17.197Z,30.96
2022-08-05T07:43:51.305Z,29.44
2022-08-05T07:46:25.458Z,27.95
2022-08-05T07:49:02.440Z,28.24
2022-08-05T07:51:37.044Z,27.45
2022-08-05T07:54:08.305Z,28.70
2022-08-05T07:57:01.343Z,29.60
2022-08-05T07:59:38.052Z,29.42
2022-08-05T08:02:15.502Z,28.11
2022-08-05T08:04:46.709Z,28.95
2022-08-05T08:07:15.374Z,28.50
2022-08-05T08:09:43.722Z,29.07
2022-08-05T08:12:35.014Z,29.19
2022-08-05T08:15:03.655Z,29.17
2022-08-05T08:17:32.940Z,29.59
2022-08-05T08:20:44.402Z,28.76
2022-08-05T08:22:53.419Z,29.16
2022-08-05T08:25:26.732Z,30.22
2022-08-05T08:28:18.185Z,29.41
2022-08-05T08:30:49.653Z,29.70
2022-08-05T08:33:17.813Z,29.26
2022-08-05T08:35:52.982Z,29.14
2022-08-05T08:38:35.309Z,29.14
2022-08-05T08:41:06.733Z,29.50
2022-08-05T08:45:17.743Z,29.55
2022-08-05T08:46:28.441Z,30.23
2022-08-05T08:49:06.402Z,28.90
2022-08-05T08:52:03.069Z,29.45
2022-08-05T08:54:36.460Z,29.73
2022-08-05T08:57:11.290Z,31.12
2022-08-05T08:59:41.854Z,31.73
2022-08-05T09:02:19.096Z,30.58
2022-08-05T09:05:16.482Z,30.74
2022-08-05T09:07:39.776Z,29.92
2022-08-05T09:10:27.121Z,32.44
2022-08-05T09:13:04.735Z,33.92
2022-08-05T09:15:36.829Z,32.93
2022-08-05T09:18:09.156Z,32.22
2022-08-05T09:20:38.414Z,31.04
2022-08-05T09:23:18.875Z,30.13
2022-08-05T09:26:01.630Z,31.18
2022-08-05T09:28:34.213Z,33.20
2022-08-05T09:31:18.198Z,33.54
2022-08-05T09:33:54.850Z,34.10
2022-08-05T09:36:27.575Z,35.21
2022-08-05T09:39:03.019Z,36.65
2022-08-05T09:41:32.873Z,36.35
2022-08-05T09:44:06.210Z,36.42
2022-08-05T09:46:35.846Z,36.58
2022-08-05T09:49:19.047Z,37.99
2022-08-05T09:51:49.343Z,35.17
2022-08-05T09:54:21.423Z,32.63
2022-08-05T09:57:01.110Z,32.03
2022-08-05T09:59:35.067Z,31.90
2022-08-05T10:02:05.234Z,31.98
2022-08-05T10:04:40.989Z,34.67
2022-08-05T10:07:19.659Z,34.20
2022-08-05T10:10:13.806Z,32.04
2022-08-05T10:12:49.667Z,32.13
2022-08-05T10:15:25.750Z,32.44
2022-08-05T10:18:11.780Z,32.31
2022-08-05T10:20:44.617Z,32.40
2022-08-05T10:23:34.034Z,33.45
2022-08-05T10:26:08.428Z,34.93
2022-08-05T10:28:42.813Z,31.15
2022-08-05T10:32:48.155Z,32.01
2022-08-05T10:34:01.385Z,33.92
2022-08-05T10:36:33.944Z,33.04
2022-08-05T10:39:10.012Z,32.96
2022-08-05T10:41:48.244Z,36.09
2022-08-05T10:44:20.234Z,37.87
2022-08-05T10:46:50.859Z,36.69
2022-08-05T10:49:26.779Z,36.54
2022-08-05T10:52:10.343Z,37.02
2022-08-05T10:54:56.093Z,39.50
2022-08-05T10:57:31.800Z,36.04
2022-08-05T11:00:19.577Z,34.16
2022-08-05T11:03:25.119Z,32.58
2022-08-05T11:06:05.670Z,37.46
2022-08-05T11:08:37.885Z,38.08
2022-08-05T11:11:44.706Z,38.56
2022-08-05T11:14:42.909Z,41.20
2022-08-05T11:17:56.819Z,42.41
2022-08-05T11:20:43.714Z,41.38
2022-08-05T11:24:05.750Z,40.93
2022-08-05T11:26:43.187Z,36.93
2022-08-05T11:29:38.104Z,34.95
2022-08-05T11:32:24.621Z,37.57
2022-08-05T11:34:54.354Z,35.52
2022-08-05T11:38:29.527Z,36.58
2022-08-05T11:41:34.996Z,34.60
2022-08-05T11:44:04.725Z,35.82
2022-08-05T11:46:37.866Z,33.53
2022-08-05T11:49:25.666Z,35.54
2022-08-05T11:51:54.282Z,35.36
2022-08-05T11:54:33.737Z,37.60
2022-08-05T11:57:07.942Z,37.96
2022-08-05T11:59:49.782Z,36.26
2022-08-05T12:02:29.947Z,35.32
2022-08-05T12:05:01.060Z,36.66
2022-08-05T12:08:09.559Z,36.08
2022-08-05T12:10:24.894Z,36.53
2022-08-05T12:13:15.470Z,34.57
2022-08-05T12:15:45.142Z,39.23
2022-08-05T12:18:20.502Z,37.28
2022-08-05T12:20:48.496Z,39.15
2022-08-05T12:23:17.176Z,40.12
2022-08-05T12:25:53.454Z,41.74
2022-08-05T12:28:39.361Z,40.23
2022-08-05T12:31:07.373Z,38.09
2022-08-05T12:33:37.006Z,39.08
2022-08-05T12:36:09.138Z,39.97
2022-08-05T12:38:39.724Z,40.21
2022-08-05T12:41:12.870Z,39.89
2022-08-05T12:43:54.890Z,36.65
2022-08-05T12:46:29.386Z,37.87
2022-08-05T12:48:59.308Z,37.56
2022-08-05T12:52:13.116Z,39.74
2022-08-05T12:54:26.541Z,40.81
2022-08-05T12:56:56.248Z,39.20
2022-08-05T12:59:27.442Z,37.64
2022-08-05T13:02:07.615Z,36.20
2022-08-05T13:04:41.837Z,38.28
2022-08-05T13:07:55.973Z,40.00
2022-08-05T13:10:12.502Z,40.21
2022-08-05T13:12:42.599Z,39.31
2022-08-05T13:15:24.494Z,39.29
2022-08-05T13:18:08.457Z,38.88
2022-08-05T13:20:40.355Z,38.77
2022-08-05T13:23:08.614Z,39.43
2022-08-05T13:25:51.872Z,40.06
2022-08-05T13:28:24.203Z,40.98
2022-08-05T13:30:54.103Z,40.64
2022-08-05T13:34:21.228Z,38.44
2022-08-05T13:36:09.865Z,39.57
2022-08-05T13:38:38.536Z,39.44
2022-08-05T13:41:10.600Z,39.99
2022-08-05T13:43:44.437Z,39.63
2022-08-05T13:46:16.368Z,38.94
2022-08-05T13:48:58.127Z,39.32
2022-08-05T13:51:40.285Z,39.24
2022-08-05T13:54:12.971Z,37.03
2022-08-05T13:56:44.958Z,37.23
2022-08-05T13:59:20.245Z,36.43
2022-08-05T14:01:57.717Z,37.90
2022-08-05T14:04:50.211Z,36.69
2022-08-05T14:07:26.042Z,37.43
2022-08-05T14:10:11.659Z,37.43
2022-08-05T14:12:40.143Z,37.22
2022-08-05T14:16:06.852Z,37.56
2022-08-05T14:18:01.855Z,36.66
2022-08-05T14:20:34.810Z,36.28
2022-08-05T14:23:02.940Z,36.80
2022-08-05T14:25:30.858Z,37.24
2022-08-05T14:27:58.880Z,37.79
2022-08-05T14:30:28.101Z,37.34
2022-08-05T14:32:57.053Z,37.42
2022-08-05T14:35:36.207Z,37.08
2022-08-05T14:38:32.655Z,36.61
2022-08-05T14:41:06.935Z,36.65
2022-08-05T14:43:51.605Z,36.31
2022-08-05T14:46:28.238Z,35.65
2022-08-05T14:48:57.769Z,35.60
2022-08-05T14:51:31.067Z,35.18
2022-08-05T14:54:06.662Z,35.08
2022-08-05T14:56:47.266Z,34.85
2022-08-05T14:59:15.493Z,34.78
2022-08-05T15:01:48.871Z,34.64
2022-08-05T15:04:17.646Z,35.48
2022-08-05T15:06:51.329Z,34.75
2022-08-05T15:09:52.562Z,34.36
2022-08-05T15:12:09.110Z,34.63
2022-08-05T15:14:42.216Z,34.12
2022-08-05T15:17:46.984Z,34.24
2022-08-05T15:20:08.129Z,33.08
2022-08-05T15:22:39.242Z,33.34
2022-08-05T15:25:13.706Z,33.82
2022-08-05T15:27:43.086Z,33.70
2022-08-05T15:30:20.709Z,33.41
2022-08-05T15:32:50.369Z,33.07
2022-08-05T15:35:18.235Z,33.19
2022-08-05T15:38:33.389Z,32.76
2022-08-05T15:41:00.214Z,32.60
2022-08-05T15:43:27.062Z,32.82
2022-08-05T15:46:00.704Z,32.30
2022-08-05T15:48:29.995Z,32.34
2022-08-05T15:51:01.050Z,32.82
2022-08-05T15:53:38.389Z,31.92
2022-08-05T15:56:18.557Z,31.68
2022-08-05T15:58:47.370Z,31.97
2022-08-05T16:01:17.415Z,32.26
2022-08-05T16:03:48.557Z,31.94
2022-08-05T16:06:20.254Z,31.25
2022-08-05T16:08:50.982Z,31.80
2022-08-05T16:11:20.882Z,31.75
2022-08-05T16:14:07.356Z,31.43
2022-08-05T16:16:36.908Z,31.34
2022-08-05T16:19:05.717Z,31.82
2022-08-05T16:22:00.484Z,31.54
2022-08-05T16:24:41.118Z,31.36
2022-08-05T16:27:16.319Z,31.98
2022-08-05T16:29:50.195Z,31.87
2022-08-05T16:32:28.829Z,31.71
2022-08-05T16:34:57.726Z,31.68
2022-08-05T16:38:16.198Z,31.42
2022-08-05T16:40:26.651Z,32.03
2022-08-05T16:42:57.241Z,32.48
2022-08-05T16:46:07.350Z,31.74
2022-08-05T16:48:25.471Z,31.52
2022-08-05T16:50:56.927Z,31.12
2022-08-05T16:53:32.202Z,31.18
2022-08-05T16:56:02.128Z,30.67
2022-08-05T16:58:30.165Z,30.74
2022-08-05T17:00:58.089Z,30.96
2022-08-05T17:03:27.210Z,31.51
2022-08-05T17:05:59.448Z,31.58
2022-08-05T17:08:33.629Z,30.76
2022-08-05T17:11:17.453Z,30.86
2022-08-05T17:13:45.618Z,31.13
2022-08-05T17:16:29.763Z,31.13
2022-08-05T17:19:01.621Z,31.03
2022-08-05T17:21:35.392Z,30.69
2022-08-05T17:24:19.735Z,30.37
2022-08-05T17:26:54.301Z,29.57
2022-08-05T17:29:39.907Z,29.87
2022-08-05T17:32:11.664Z,29.27
2022-08-05T17:34:47.683Z,29.18
2022-08-05T17:37:41.700Z,29.77
2022-08-05T17:40:10.119Z,28.95
2022-08-05T17:42:43.207Z,29.26
2022-08-05T17:45:20.566Z,29.21
2022-08-05T17:47:53.962Z,28.61
2022-08-05T17:50:28.587Z,28.50
2022-08-05T17:52:58.780Z,28.63
2022-08-05T17:55:34.253Z,28.92
2022-08-05T17:58:11.202Z,29.03
2022-08-05T18:00:45.354Z,28.92
2022-08-05T18:03:39.273Z,28.69
2022-08-05T18:06:06.320Z,28.64
2022-08-05T18:08:44.126Z,28.65
2022-08-05T18:11:24.165Z,28.41
2022-08-05T18:14:06.581Z,28.16
2022-08-05T18:16:35.292Z,27.60
2022-08-05T18:19:22.668Z,27.29
2022-08-05T18:22:07.192Z,27.63
2022-08-05T18:24:37.730Z,27.88
2022-08-05T18:27:18.573Z,27.53
2022-08-05T18:29:54.122Z,27.70
2022-08-05T18:32:28.107Z,26.95
2022-08-05T18:34:57.501Z,27.62
2022-08-05T18:37:34.826Z,27.48
2022-08-05T18:40:31.611Z,27.67
2022-08-05T18:42:57.875Z,27.38
2022-08-05T18:45:41.333Z,27.40
2022-08-05T18:48:11.124Z,27.25
2022-08-05T18:50:57.200Z,27.55
2022-08-05T18:53:32.178Z,28.03
2022-08-05T18:56:02.645Z,27.36
2022-08-05T18:58:40.467Z,27.13
2022-08-05T19:01:18.134Z,27.11
2022-08-05T19:03:55.237Z,26.79
2022-08-05T19:06:37.090Z,27.13
2022-08-05T19:09:12.379Z,26.85
2022-08-05T19:12:00.409Z,26.68
2022-08-05T19:14:37.995Z,26.85
2022-08-05T19:17:17.762Z,26.59
2022-08-05T19:19:48.637Z,26.54
2022-08-05T19:22:17.778Z,26.66
2022-08-05T19:24:54.147Z,26.61
2022-08-05T19:27:24.444Z,26.54
2022-08-05T19:29:58.255Z,26.90
2022-08-05T19:32:27.903Z,26.56
2022-08-05T19:34:56.073Z,26.63
2022-08-05T19:37:29.906Z,25.73
2022-08-05T19:40:12.708Z,25.38
2022-08-05T19:42:43.098Z,25.82
2022-08-05T19:45:33.279Z,26.43
2022-08-05T19:48:06.306Z,24.31
2022-08-05T19:50:34.915Z,23.26
2022-08-05T19:53:09.307Z,23.54
2022-08-05T19:56:15.704Z,23.43
2022-08-05T19:58:29.455Z,23.24
2022-08-05T20:00:58.188Z,23.12
2022-08-05T20:03:38.743Z,23.29
2022-08-05T20:06:11.786Z,23.34
2022-08-05T20:08:47.417Z,23.24
2022-08-05T20:11:18.061Z,23.52
2022-08-05T20:13:58.475Z,23.18
2022-08-05T20:16:35.158Z,23.30
2022-08-05T20:19:05.126Z,23.42
2022-08-05T20:21:33.276Z,23.35
2022-08-05T20:24:01.092Z,23.35
2022-08-05T20:26:29.447Z,23.31
2022-08-05T20:29:00.661Z,23.17
2022-08-05T20:31:42.134Z,23.59
2022-08-05T20:34:18.758Z,23.86
2022-08-05T20:36:47.844Z,23.83
2022-08-05T20:39:16.493Z,23.78
2022-08-05T20:41:45.253Z,23.86
2022-08-05T20:44:18.601Z,24.02
2022-08-05T20:46:57.752Z,23.85
2022-08-05T20:49:27.207Z,23.73
2022-08-05T20:51:55.943Z,23.67
2022-08-05T20:54:43.377Z,23.81
2022-08-05T20:57:15.025Z,23.98
2022-08-05T21:00:19.590Z,24.01
2022-08-05T21:02:53.138Z,24.34
2022-08-05T21:05:22.549Z,23.88
2022-08-05T21:07:51.659Z,24.25
2022-08-05T21:10:20.159Z,24.31
2022-08-05T21:12:58.142Z,23.90
2022-08-05T21:15:37.041Z,23.64
2022-08-05T21:18:05.185Z,23.80
2022-08-05T21:20:34.400Z,23.68
2022-08-05T21:23:03.085Z,23.79
2022-08-05T21:25:33.998Z,24.02
2022-08-05T21:28:02.708Z,23.63
2022-08-05T21:30:31.361Z,24.03
2022-08-05T21:32:59.739Z,24.23
2022-08-05T21:35:43.718Z,23.77
2022-08-05T21:38:19.129Z,24.28
2022-08-05T21:40:46.997Z,24.25
2022-08-05T21:43:17.683Z,24.36
2022-08-05T21:45:57.561Z,24.07
2022-08-05T21:48:28.956Z,24.41
2022-08-05T21:50:59.772Z,23.84
2022-08-05T21:53:28.945Z,23.92
2022-08-05T21:56:05.263Z,24.09
2022-08-05T21:58:42.282Z,23.92
2022-08-05T22:01:10.940Z,23.76
2022-08-05T22:03:53.100Z,23.96
2022-08-05T22:06:39.461Z,23.68
2022-08-05T22:09:13.955Z,23.40
2022-08-05T22:11:43.580Z,23.14
2022-08-05T22:14:33.746Z,23.46
2022-08-05T22:17:06.601Z,23.23
2022-08-05T22:20:00.250Z,23.84
2022-08-05T22:22:28.271Z,23.45
2022-08-05T22:25:21.715Z,23.68
2022-08-05T22:28:09.384Z,23.52
2022-08-05T22:30:44.007Z,23.70
2022-08-05T22:33:56.995Z,23.49
2022-08-05T22:36:09.556Z,23.71
2022-08-05T22:38:38.367Z,23.55
2022-08-05T22:41:11.922Z,23.65
2022-08-05T22:43:42.913Z,23.52
2022-08-05T22:46:13.149Z,23.56
2022-08-05T22:48:41.755Z,23.60
2022-08-05T22:51:16.132Z,24.08
2022-08-05T22:53:54.934Z,24.27
2022-08-05T22:56:30.732Z,23.41
2022-08-05T22:59:03.128Z,23.77
2022-08-05T23:02:03.887Z,24.30
2022-08-05T23:04:20.602Z,24.61
2022-08-05T23:06:48.346Z,23.85
2022-08-05T23:09:52.864Z,23.91
2022-08-05T23:12:06.194Z,24.42
2022-08-05T23:14:33.997Z,24.12
2022-08-05T23:17:34.918Z,24.46
2022-08-05T23:20:10.169Z,23.84
2022-08-05T23:22:47.675Z,24.07
2022-08-05T23:25:51.905Z,23.63
2022-08-05T23:28:07.675Z,23.73
2022-08-05T23:30:40.499Z,24.01
2022-08-05T23:33:16.067Z,23.92
2022-08-05T23:35:50.385Z,23.96
2022-08-05T23:38:19.305Z,24.60
2022-08-05T23:40:49.371Z,24.99
2022-08-05T23:43:25.387Z,24.56
2022-08-05T23:46:21.025Z,24.44
2022-08-05T23:48:59.817Z,24.53
2022-08-05T23:51:53.385Z,24.99
2022-08-05T23:54:25.673Z,25.09
2022-08-05T23:56:55.937Z,24.87
